TimeEDT,TemperatureF,Dew PointF,Humidity,Sea Level PressureIn,VisibilityMPH,Wind Direction,Wind SpeedMPH,Gust SpeedMPH,PrecipitationIn,Events,Conditions,WindDirDegrees,DateUTC
12:53 AM,55.9,34.0,44,30.04,10.0,South,3.5,-,N/A,,Clear,180,2013-04-07 04:53:00
1:53 AM,53.1,34.0,48,30.04,10.0,Calm,Calm,-,N/A,,Clear,0,2013-04-07 05:53:00
2:53 AM,51.1,34.0,52,30.01,10.0,South,3.5,-,N/A,,Clear,180,2013-04-07 06:53:00
3:53 AM,55.0,35.1,47,30.00,10.0,South,6.9,-,N/A,,Clear,190,2013-04-07 07:53:00
4:53 AM,55.0,34.0,45,30.01,10.0,SW,5.8,-,N/A,,Clear,220,2013-04-07 08:53:00
5:53 AM,54.0,35.1,49,30.02,10.0,SSW,5.8,-,N/A,,Clear,210,2013-04-07 09:53:00
6:53 AM,52.0,36.0,54,30.03,10.0,South,6.9,-,N/A,,Clear,190,2013-04-07 10:53:00
7:53 AM,53.1,37.0,55,30.05,9.0,South,5.8,-,N/A,,Clear,190,2013-04-07 11:53:00
8:53 AM,57.9,41.0,53,30.06,10.0,SSW,8.1,-,N/A,,Clear,210,2013-04-07 12:53:00
9:53 AM,64.0,41.0,43,30.06,10.0,SW,12.7,20.7,N/A,,Clear,220,2013-04-07 13:53:00
10:53 AM,64.9,42.1,43,30.07,10.0,WSW,8.1,20.7,N/A,,Clear,240,2013-04-07 14:53:00
11:53 AM,66.9,42.1,40,30.07,10.0,WSW,18.4,26.5,N/A,,Clear,240,2013-04-07 15:53:00
12:53 PM,68.0,42.1,39,30.06,10.0,SW,10.4,21.9,N/A,,Clear,230,2013-04-07 16:53:00
1:53 PM,71.1,42.1,35,30.04,10.0,SSW,13.8,20.7,N/A,,Scattered Clouds,200,2013-04-07 17:53:00
2:53 PM,72.0,41.0,33,30.01,10.0,SSW,13.8,19.6,N/A,,Partly Cloudy,210,2013-04-07 18:53:00
3:53 PM,73.0,37.9,28,29.99,10.0,SW,10.4,-,N/A,,Mostly Cloudy,220,2013-04-07 19:53:00
4:53 PM,73.0,36.0,26,29.99,10.0,SW,8.1,19.6,N/A,,Overcast,220,2013-04-07 20:53:00
5:53 PM,72.0,35.1,26,29.99,10.0,WSW,6.9,-,N/A,,Mostly Cloudy,240,2013-04-07 21:53:00
6:53 PM,69.1,39.0,33,30.00,10.0,WNW,5.8,-,N/A,,Overcast,290,2013-04-07 22:53:00
7:53 PM,66.9,41.0,39,30.00,10.0,Calm,Calm,-,N/A,,Mostly Cloudy,0,2013-04-07 23:53:00
8:53 PM,62.1,43.0,50,30.01,10.0,Calm,Calm,-,N/A,,Overcast,0,2013-04-08 00:53:00
9:53 PM,61.0,41.0,48,30.01,10.0,SSE,3.5,-,N/A,,Partly Cloudy,150,2013-04-08 01:53:00
10:53 PM,57.0,42.1,57,30.02,10.0,Calm,Calm,-,N/A,,Scattered Clouds,0,2013-04-08 02:53:00
11:53 PM,55.0,42.1,62,30.02,10.0,Calm,Calm,-,N/A,,Mostly Cloudy,0,2013-04-08 03:53:00